Ginys del Meteocat

Dades de l'estació automàtica Viladecans

?
?
Resum diari
Dades diàries de l'estació meteorològica
Temperatura mitjana 10.9 °C
Temperatura màxima 14.5 °C 12:41 TU
Temperatura mínima 7.5 °C 4:49 TU
Humitat relativa mitjana 85%
Precipitació acumulada 0.0 mm
Ratxa màxima del vent (2 m) 12.2 km/h - 13º 11:57 TU
Irradiació solar global 5.1 MJ/m2

El tram horari està expressat en Temps Universal (TU). Cal sumar una hora en horari d'hivern i dues en horari d'estiu per passar a l'hora oficial.

Viladecans

Metadades estació meteorol´gica
Municipi Viladecans
Comarca Baix Llobregat
Altitud 3 m
Data alta 29.04.1993
Estat actual Operativa
Dades de període
Període
TU
TM
°C
TX
°C
TN
°C
HRM
%
PPT
mm
VVM (2 m)
km/h
DVM (2 m)
graus
VVX (2 m)
km/h
RS
W/m2
00:00 - 00:30 8.7 8.8 8.7 90 0.0 0.7 61 3.2 0
00:30 - 01:00 8.8 9.0 8.6 89 0.0 1.8 40 6.5 0
01:00 - 01:30 8.5 9.0 8.1 91 0.0 0.7 70 3.6 0
01:30 - 02:00 8.0 8.1 8.0 92 0.0 1.1 39 3.6 0
02:00 - 02:30 8.2 8.4 8.0 92 0.0 1.1 39 4.7 0
02:30 - 03:00 8.5 8.6 8.4 91 0.0 1.1 43 3.6 0
03:00 - 03:30 8.4 8.5 8.3 91 0.0 0.7 48 4.7 0
03:30 - 04:00 8.5 8.5 8.3 91 0.0 2.5 36 6.5 0
04:00 - 04:30 8.2 8.5 7.8 91 0.0 2.2 39 7.6 0
04:30 - 05:00 7.6 7.8 7.5 91 0.0 2.5 41 7.6 0
05:00 - 05:30 7.8 8.1 7.7 90 0.0 3.2 35 8.6 0
05:30 - 06:00 8.5 8.7 8.1 87 0.0 4.7 25 10.1 0
06:00 - 06:30 8.3 8.4 8.1 88 0.0 4.3 27 9.0 0
06:30 - 07:00 8.3 8.5 8.1 88 0.0 4.7 23 9.0 0
07:00 - 07:30 8.6 8.7 8.5 86 0.0 3.2 31 8.3 3
07:30 - 08:00 8.8 8.9 8.7 85 0.0 2.5 32 7.6 16
08:00 - 08:30 9.1 9.3 9.0 85 0.0 2.9 36 9.0 52
08:30 - 09:00 9.4 9.5 9.3 85 0.0 3.6 29 7.9 100
09:00 - 09:30 9.8 10.1 9.5 83 0.0 4.7 20 9.7 129
09:30 - 10:00 10.6 11.0 10.1 83 0.0 2.9 25 7.9 144
10:00 - 10:30 11.1 11.3 11.0 82 0.0 4.0 25 9.7 150
10:30 - 11:00 11.5 11.8 11.2 79 0.0 4.0 25 8.6 171
11:00 - 11:30 12.3 13.0 11.7 77 0.0 5.0 17 10.8 284
11:30 - 12:00 13.3 14.0 12.9 76 0.0 5.4 22 12.2 353
12:00 - 12:30 13.6 14.0 13.3 74 0.0 5.4 17 11.5 352
12:30 - 13:00 14.3 14.5 14.1 71 0.0 5.0 7 10.8 370
13:00 - 13:30 14.1 14.4 13.9 70 0.0 3.2 26 8.6 193
13:30 - 14:00 14.2 14.3 14.1 70 0.0 2.5 35 6.8 160
14:00 - 14:30 14.0 14.1 13.8 73 0.0 2.2 46 6.8 113
14:30 - 15:00 13.9 13.9 13.8 76 0.0 1.8 43 6.1 103
15:00 - 15:30 13.7 13.8 13.6 77 0.0 1.8 43 6.8 85
15:30 - 16:00 13.5 13.7 13.3 79 0.0 1.8 42 5.8 48
16:00 - 16:30 13.1 13.3 12.9 85 0.0 2.2 37 5.0 27
16:30 - 17:00 12.7 12.9 12.5 85 0.0 1.1 32 6.1 9
17:00 - 17:30 12.3 12.4 12.2 88 0.0 0.7 47 4.7 0
17:30 - 18:00 12.4 12.5 12.2 86 0.0 1.8 30 6.5 0
18:00 - 18:30 12.1 12.2 12.0 86 0.0 1.4 20 4.3 0
18:30 - 19:00 12.1 12.3 12.0 86 0.0 1.4 18 4.0 0
19:00 - 19:30 12.2 12.4 12.1 86 0.0 1.4 40 5.4 0
19:30 - 20:00 12.0 12.2 11.8 87 0.0 1.4 26 4.7 0
20:00 - 20:30 11.8 12.0 11.6 89 0.0 1.1 44 4.7 0
20:30 - 21:00 11.4 11.6 11.3 91 0.0 1.1 34 4.0 0
21:00 - 21:30 11.5 11.6 11.3 91 0.0 1.8 27 5.8 0
21:30 - 22:00 11.6 11.8 11.4 91 0.0 1.1 52 4.3 0
22:00 - 22:30 11.4 11.5 11.3 92 0.0 1.8 38 5.0 0
22:30 - 23:00 11.2 11.5 11.0 91 0.0 2.2 15 5.0 0
23:00 - 23:30 10.4 10.9 10.0 93 0.0 1.4 41 6.8 0

Les dades en taronja només han passat un control de qualitat automàtic. Resta pendent la seva validació definitiva.